Аэропорт: Ужгород. Ужгород

ICAO: UKLU

METAR:
2018/11/19 10:00
UKLU 191000Z 07003MPS 010V120 9999 BKN048 05/M02 Q1016 R10/090070 NOSIG
METAR:
2018/08/04 18:39
TAF TAF UKLU 041831Z 0418/0506 CNL